TimeEDT,TemperatureF,Dew PointF,Humidity,Sea Level PressureIn,VisibilityMPH,Wind Direction,Wind SpeedMPH,Gust SpeedMPH,PrecipitationIn,Events,Conditions,WindDirDegrees,DateUTC
12:17 AM,32.4,31.1,95,29.84,3.0,NNW,12.7,18.4,N/A,Snow,Light Snow,330,2013-05-12 04:17:00
12:37 AM,32.4,30.2,92,29.85,7.0,NNW,15.0,24.2,N/A,Snow,Light Snow,330,2013-05-12 04:37:00
12:56 AM,32.0,30.6,94,29.85,3.0,NNW,16.1,21.9,N/A,Snow,Light Snow,330,2013-05-12 04:56:00
1:17 AM,32.0,30.7,95,29.85,1.5,NW,13.8,21.9,N/A,Snow,Light Snow,320,2013-05-12 05:17:00
1:37 AM,32.0,30.7,95,29.85,1.8,NW,16.1,19.6,N/A,Snow,Light Snow,320,2013-05-12 05:37:00
1:56 AM,32.0,30.7,95,29.85,1.5,NNW,16.1,-,N/A,Snow,Light Snow,330,2013-05-12 05:56:00
2:17 AM,32.0,30.9,96,29.86,1.2,NNW,13.8,-,N/A,Snow,Snow,330,2013-05-12 06:17:00
2:37 AM,32.0,30.7,95,29.86,1.5,NNW,16.1,24.2,N/A,Snow,Light Snow,340,2013-05-12 06:37:00
2:57 AM,32.0,30.6,94,29.87,1.5,NNW,13.8,23.0,N/A,Snow,Light Snow,340,2013-05-12 06:57:00
3:17 AM,32.0,30.2,93,29.87,1.8,NNW,16.1,25.3,N/A,Snow,Light Snow,340,2013-05-12 07:17:00
3:36 AM,32.0,30.2,93,29.88,2.0,NNW,15.0,25.3,N/A,Snow,Light Snow,340,2013-05-12 07:36:00
3:57 AM,31.8,29.8,92,29.88,2.0,NNW,15.0,25.3,N/A,Snow,Light Snow,340,2013-05-12 07:57:00
4:16 AM,31.8,29.7,92,29.89,3.0,NNW,15.0,27.6,N/A,Snow,Light Snow,340,2013-05-12 08:16:00
4:37 AM,31.5,29.5,92,29.90,2.0,NNW,16.1,25.3,N/A,Snow,Light Snow,340,2013-05-12 08:37:00
4:57 AM,31.3,29.1,92,29.90,2.5,NNW,17.3,29.9,N/A,Snow,Light Snow,340,2013-05-12 08:57:00
5:17 AM,31.1,28.4,90,29.90,4.0,NNW,20.7,25.3,N/A,Snow,Light Snow,340,2013-05-12 09:17:00
5:37 AM,31.1,27.7,87,29.91,7.0,NNW,18.4,29.9,N/A,,Overcast,340,2013-05-12 09:37:00
5:57 AM,30.9,27.1,86,29.91,10.0,NNW,17.3,27.6,N/A,,Overcast,340,2013-05-12 09:57:00
6:50 AM,30.2,24.8,80,29.93,10.0,NNW,15.0,-,N/A,,Overcast,340,2013-05-12 10:50:00
7:50 AM,30.2,24.8,80,29.94,10.0,NNW,18.4,25.3,N/A,,Overcast,340,2013-05-12 11:50:00
8:50 AM,30.2,24.8,80,29.95,10.0,NNW,17.3,21.9,N/A,Snow,Light Snow,340,2013-05-12 12:50:00
9:50 AM,30.2,24.8,80,29.97,5.0,NNW,10.4,-,N/A,Snow,Light Snow,340,2013-05-12 13:50:00
10:50 AM,30.2,23.0,75,29.97,10.0,NNW,15.0,28.8,N/A,,Overcast,330,2013-05-12 14:50:00
11:50 AM,32.0,24.8,75,29.99,10.0,NNW,23.0,27.6,N/A,,Overcast,330,2013-05-12 15:50:00
12:50 PM,32.0,24.8,75,30.01,10.0,NNW,16.1,27.6,N/A,,Overcast,330,2013-05-12 16:50:00
1:50 PM,33.8,24.8,70,30.01,10.0,NNW,13.8,19.6,N/A,,Overcast,340,2013-05-12 17:50:00
2:50 PM,33.8,24.8,70,30.02,10.0,NNW,19.6,29.9,N/A,,Overcast,340,2013-05-12 18:50:00
3:55 PM,33.8,23.0,65,30.02,10.0,NW,17.3,25.3,N/A,,Overcast,320,2013-05-12 19:55:00
4:45 PM,35.6,24.8,65,30.03,10.0,NNW,15.0,24.2,N/A,,Overcast,340,2013-05-12 20:45:00
5:55 PM,37.4,23.0,56,30.05,10.0,North,16.1,23.0,N/A,,Mostly Cloudy,350,2013-05-12 21:55:00
6:55 PM,37.4,21.2,52,30.05,10.0,NNW,17.3,26.5,N/A,,Scattered Clouds,340,2013-05-12 22:55:00
7:50 PM,37.4,17.6,45,30.05,10.0,NNW,19.6,26.5,N/A,,Scattered Clouds,340,2013-05-12 23:50:00
8:50 PM,35.6,19.4,52,30.05,10.0,NNW,8.1,-,N/A,,Clear,340,2013-05-13 00:50:00
9:50 PM,33.8,19.4,56,30.06,10.0,NNW,5.8,-,N/A,,Clear,340,2013-05-13 01:50:00
10:17 PM,32.0,20.3,62,30.07,10.0,Calm,Calm,-,N/A,,Clear,0,2013-05-13 02:17:00
10:37 PM,31.1,19.9,63,30.07,10.0,Calm,Calm,-,N/A,,Clear,0,2013-05-13 02:37:00
10:56 PM,30.2,20.1,66,30.07,10.0,Calm,Calm,-,N/A,,Clear,0,2013-05-13 02:56:00
11:17 PM,30.2,20.1,66,30.07,10.0,Calm,Calm,-,N/A,,Clear,0,2013-05-13 03:17:00
11:37 PM,31.1,20.1,64,30.06,10.0,NW,5.8,-,N/A,,Clear,310,2013-05-13 03:37:00
11:57 PM,30.9,20.3,65,30.06,10.0,NW,5.8,-,N/A,,Clear,310,2013-05-13 03:57:00